Time;durP1;ratioP1;P1;durP2;ratioP2;P2;SDS_P1;SDS_P2;PMS_P1;PMS_P2;Temp;Humidity;BMP_temperature;BMP_pressure;BME280_temperature;BME280_humidity;BME280_pressure;Samples;Min_cycle;Max_cycle;Signal;HPM_P1;HPM_P2
2023/09/28 00:02:45;;;;;;;25.90;16.30;;;;;;;;;;6196125;23;20091;-78
2023/09/28 00:05:12;;;;;;;37.80;17.50;;;;;;;;;;6243629;23;20027;-77
2023/09/28 00:07:39;;;;;;;41.33;16.88;;;;;;;;;;6245359;23;20069;-76
2023/09/28 00:10:06;;;;;;;34.28;18.35;;;;;;;;;;6224826;23;20020;-76
2023/09/28 00:12:33;;;;;;;42.22;18.92;;;;;;;;;;6222290;23;20012;-75
2023/09/28 00:14:59;;;;;;;48.35;21.50;;;;;;;;;;6244883;22;20099;-77
2023/09/28 00:17:27;;;;;;;46.78;18.17;;;;;;;;;;6195330;23;20040;-77
2023/09/28 00:19:53;;;;;;;42.90;20.58;;;;;;;;;;6257462;23;20083;-76
2023/09/28 00:22:19;;;;;;;35.75;19.05;;;;;;;;;;6261055;23;20012;-78
2023/09/28 00:24:45;;;;;;;29.25;15.95;;;;;;;;;;6255896;23;20016;-77
2023/09/28 00:27:11;;;;;;;30.70;17.13;;;;;;;;;;6228032;23;20078;-77
2023/09/28 00:29:39;;;;;;;40.35;22.50;;;;;;;;;;6222897;23;20107;-78
2023/09/28 00:32:05;;;;;;;39.83;21.08;;;;;;;;;;6195991;23;20563;-77
2023/09/28 00:34:31;;;;;;;43.47;21.83;;;;;;;;;;6195464;23;20016;-78
2023/09/28 00:36:58;;;;;;;52.78;24.67;;;;;;;;;;6220198;23;20012;-77
2023/09/28 00:39:24;;;;;;;43.67;21.88;;;;;;;;;;6195003;23;20087;-77
2023/09/28 00:41:50;;;;;;;50.65;26.80;;;;;;;;;;6243431;23;20016;-77
2023/09/28 00:44:17;;;;;;;38.25;20.50;;;;;;;;;;6216399;23;20035;-77
2023/09/28 00:46:44;;;;;;;45.70;21.48;;;;;;;;;;6217041;23;20031;-77
2023/09/28 00:49:10;;;;;;;37.85;19.45;;;;;;;;;;6219602;23;20086;-77
2023/09/28 00:51:39;;;;;;;36.25;19.20;;;;;;;;;;6220628;23;20008;-76
2023/09/28 00:54:06;;;;;;;32.63;18.63;;;;;;;;;;6217635;23;20044;-77
2023/09/28 00:56:32;;;;;;;32.92;18.55;;;;;;;;;;6216774;23;20012;-77
2023/09/28 00:58:59;;;;;;;33.42;18.20;;;;;;;;;;6243114;23;20054;-77
2023/09/28 01:01:29;;;;;;;38.00;20.95;;;;;;;;;;6191714;23;20019;-75
2023/09/28 01:04:03;;;;;;;32.35;19.27;;;;;;;;;;6216053;23;20016;-77
2023/09/28 01:06:30;;;;;;;37.28;21.38;;;;;;;;;;6167756;23;20019;-77
2023/09/28 01:08:57;;;;;;;31.27;19.42;;;;;;;;;;6191056;23;20449;-77
2023/09/28 01:11:24;;;;;;;40.72;20.52;;;;;;;;;;6216062;23;20016;-78
2023/09/28 01:13:50;;;;;;;38.03;20.77;;;;;;;;;;6190905;23;20012;-76
2023/09/28 01:16:19;;;;;;;33.72;20.95;;;;;;;;;;6215855;23;20111;-75
2023/09/28 01:18:46;;;;;;;36.47;20.20;;;;;;;;;;6191204;23;20042;-77
2023/09/28 01:21:12;;;;;;;27.90;17.83;;;;;;;;;;6191343;23;20016;-74
2023/09/28 01:23:39;;;;;;;28.30;15.95;;;;;;;;;;6191128;23;20092;-76
2023/09/28 01:26:06;;;;;;;23.63;15.68;;;;;;;;;;6242204;23;20047;-74
2023/09/28 01:28:33;;;;;;;30.10;15.65;;;;;;;;;;6216242;23;20008;-75
2023/09/28 01:30:59;;;;;;;25.13;13.55;;;;;;;;;;6190604;23;20036;-76
2023/09/28 01:33:27;;;;;;;27.40;14.30;;;;;;;;;;6215888;23;20023;-76
2023/09/28 01:35:53;;;;;;;23.85;13.80;;;;;;;;;;6215164;23;20036;-76
2023/09/28 01:38:21;;;;;;;17.65;13.43;;;;;;;;;;6215811;23;20019;-77
2023/09/28 01:40:48;;;;;;;20.77;13.20;;;;;;;;;;6165940;23;20012;-76
2023/09/28 01:43:16;;;;;;;16.67;12.88;;;;;;;;;;6190703;23;20016;-75
2023/09/28 01:45:42;;;;;;;22.85;13.55;;;;;;;;;;6165858;23;20468;-76
2023/09/28 01:48:08;;;;;;;31.13;15.18;;;;;;;;;;6242090;23;20087;-75
2023/09/28 01:50:36;;;;;;;20.88;13.73;;;;;;;;;;6191212;23;20012;-75
2023/09/28 01:53:02;;;;;;;23.70;16.13;;;;;;;;;;6190168;23;20008;-76
2023/09/28 01:55:28;;;;;;;25.33;15.55;;;;;;;;;;6242211;23;20034;-74
2023/09/28 01:57:54;;;;;;;16.33;12.40;;;;;;;;;;6242118;23;20012;-74
2023/09/28 02:00:22;;;;;;;23.80;14.70;;;;;;;;;;6190533;23;20039;-75
2023/09/28 02:02:50;;;;;;;21.25;13.82;;;;;;;;;;6190122;23;20139;-76
2023/09/28 02:05:19;;;;;;;25.75;12.55;;;;;;;;;;6215859;23;20015;-75
2023/09/28 02:07:45;;;;;;;21.70;12.38;;;;;;;;;;6190262;23;20004;-75
2023/09/28 02:10:12;;;;;;;20.08;13.52;;;;;;;;;;6191003;23;20016;-76
2023/09/28 02:12:43;;;;;;;21.45;15.27;;;;;;;;;;6215344;23;20015;-75
2023/09/28 02:15:16;;;;;;;27.80;14.50;;;;;;;;;;6192007;22;20484;-75
2023/09/28 02:17:44;;;;;;;23.07;14.83;;;;;;;;;;6217510;23;20027;-76
2023/09/28 02:20:11;;;;;;;21.27;13.75;;;;;;;;;;6216633;23;20011;-78
2023/09/28 02:22:43;;;;;;;22.42;12.27;;;;;;;;;;6216673;23;20016;-78
2023/09/28 02:25:15;;;;;;;22.17;14.10;;;;;;;;;;6192383;23;20024;-78
2023/09/28 02:27:43;;;;;;;24.02;13.98;;;;;;;;;;6191201;23;20019;-77
2023/09/28 02:30:11;;;;;;;17.95;13.10;;;;;;;;;;6215150;23;20019;-77
2023/09/28 02:32:38;;;;;;;20.50;12.20;;;;;;;;;;6190542;23;20035;-77
2023/09/28 02:35:06;;;;;;;16.67;11.40;;;;;;;;;;6215198;23;20015;-77
2023/09/28 02:37:35;;;;;;;19.05;12.30;;;;;;;;;;6215304;23;20019;-78
2023/09/28 02:40:05;;;;;;;21.75;12.45;;;;;;;;;;6214465;23;20023;-78
2023/09/28 02:42:32;;;;;;;21.33;12.95;;;;;;;;;;6190665;23;20065;-76
2023/09/28 02:44:58;;;;;;;20.55;13.35;;;;;;;;;;6242097;23;20019;-77
2023/09/28 02:47:24;;;;;;;21.88;13.77;;;;;;;;;;6242005;23;20044;-75
2023/09/28 02:49:51;;;;;;;18.90;13.30;;;;;;;;;;6215339;23;20008;-76
2023/09/28 02:52:18;;;;;;;18.63;12.88;;;;;;;;;;6215685;23;20579;-75
2023/09/28 02:54:44;;;;;;;20.95;14.00;;;;;;;;;;6242074;23;20036;-76
2023/09/28 02:57:11;;;;;;;20.05;13.90;;;;;;;;;;6241551;23;20015;-76
2023/09/28 02:59:37;;;;;;;18.90;13.93;;;;;;;;;;6215248;23;20020;-75
2023/09/28 03:02:03;;;;;;;15.75;13.05;;;;;;;;;;6241430;23;20027;-76
2023/09/28 03:04:33;;;;;;;18.67;12.30;;;;;;;;;;6241858;23;20106;-76
2023/09/28 03:07:00;;;;;;;16.15;12.50;;;;;;;;;;6215441;23;20019;-77
2023/09/28 03:09:26;;;;;;;18.30;13.13;;;;;;;;;;6218404;23;20020;-77
2023/09/28 03:11:54;;;;;;;14.05;11.23;;;;;;;;;;6218639;23;20008;-77
2023/09/28 03:14:20;;;;;;;16.17;11.80;;;;;;;;;;6193942;23;20364;-77
2023/09/28 03:16:47;;;;;;;16.10;11.32;;;;;;;;;;6218047;23;20114;-77
2023/09/28 03:19:13;;;;;;;14.93;11.48;;;;;;;;;;6194090;23;20012;-76
2023/09/28 03:21:41;;;;;;;22.02;11.68;;;;;;;;;;6218591;23;20008;-78
2023/09/28 03:24:08;;;;;;;13.95;11.60;;;;;;;;;;6244775;23;20016;-77
2023/09/28 03:26:34;;;;;;;17.60;11.77;;;;;;;;;;6218470;23;20016;-78
2023/09/28 03:29:00;;;;;;;23.02;12.18;;;;;;;;;;6245148;23;20357;-77
2023/09/28 03:31:27;;;;;;;16.17;11.50;;;;;;;;;;6193166;23;20020;-76
2023/09/28 03:33:54;;;;;;;17.02;10.40;;;;;;;;;;6218193;23;20012;-77
2023/09/28 03:36:21;;;;;;;15.43;11.35;;;;;;;;;;6217858;23;20066;-78
2023/09/28 03:38:48;;;;;;;16.30;11.98;;;;;;;;;;6243927;23;20095;-79
2023/09/28 03:41:14;;;;;;;14.68;11.00;;;;;;;;;;6244975;23;20011;-77
2023/09/28 03:43:42;;;;;;;15.43;11.55;;;;;;;;;;6218863;23;20083;-78
2023/09/28 03:46:08;;;;;;;20.35;11.20;;;;;;;;;;6193857;23;20372;-78
2023/09/28 03:48:35;;;;;;;16.65;11.35;;;;;;;;;;6220135;23;20030;-78
2023/09/28 03:51:01;;;;;;;13.35;10.82;;;;;;;;;;6227936;23;20457;-78
2023/09/28 03:53:27;;;;;;;12.00;10.52;;;;;;;;;;6207048;23;20012;-78
2023/09/28 03:55:53;;;;;;;17.67;11.90;;;;;;;;;;6254602;23;20012;-79
2023/09/28 03:58:19;;;;;;;17.67;11.70;;;;;;;;;;6219614;23;20011;-79
2023/09/28 04:00:45;;;;;;;14.63;11.38;;;;;;;;;;6245750;23;20479;-79
2023/09/28 04:03:14;;;;;;;15.23;10.40;;;;;;;;;;6245028;23;20008;-78
2023/09/28 04:05:40;;;;;;;16.63;10.55;;;;;;;;;;6192889;23;20577;-77
2023/09/28 04:08:06;;;;;;;12.70;11.23;;;;;;;;;;6168279;23;20019;-78
2023/09/28 04:10:33;;;;;;;10.68;8.88;;;;;;;;;;6245192;23;20020;-78
2023/09/28 04:13:01;;;;;;;17.60;10.20;;;;;;;;;;6217894;23;20043;-78
2023/09/28 04:15:27;;;;;;;10.93;9.52;;;;;;;;;;6218478;22;20043;-77
2023/09/28 04:17:53;;;;;;;10.60;9.60;;;;;;;;;;6244559;23;20024;-78
2023/09/28 04:20:19;;;;;;;12.45;8.95;;;;;;;;;;6216034;23;20020;-79
2023/09/28 04:22:45;;;;;;;12.20;9.38;;;;;;;;;;6216386;23;20034;-79
2023/09/28 04:25:12;;;;;;;11.00;9.48;;;;;;;;;;6216073;23;20020;-78
2023/09/28 04:27:38;;;;;;;12.82;9.57;;;;;;;;;;6216366;23;20357;-78
2023/09/28 04:30:04;;;;;;;10.52;8.85;;;;;;;;;;6243079;23;20016;-78
2023/09/28 04:32:32;;;;;;;13.90;8.13;;;;;;;;;;6243153;23;20007;-75
2023/09/28 04:34:58;;;;;;;16.88;9.30;;;;;;;;;;6242931;23;20023;-82
2023/09/28 04:37:26;;;;;;;15.90;9.10;;;;;;;;;;6215369;23;20091;-80
2023/09/28 04:39:53;;;;;;;16.08;9.35;;;;;;;;;;6216751;23;20393;-81
2023/09/28 04:42:22;;;;;;;14.43;9.57;;;;;;;;;;6216772;23;20008;-81
2023/09/28 04:44:49;;;;;;;13.35;9.27;;;;;;;;;;6166425;23;20028;-81
2023/09/28 04:47:15;;;;;;;9.40;8.50;;;;;;;;;;6193805;23;20504;-80
2023/09/28 04:49:41;;;;;;;10.27;9.30;;;;;;;;;;6216728;23;20012;-81
2023/09/28 04:52:09;;;;;;;10.43;8.48;;;;;;;;;;6243695;23;20012;-76
2023/09/28 04:54:36;;;;;;;13.52;8.95;;;;;;;;;;6189780;23;20012;-80
2023/09/28 04:57:02;;;;;;;16.40;10.25;;;;;;;;;;6215215;23;20059;-79
2023/09/28 04:59:28;;;;;;;10.60;9.48;;;;;;;;;;6190849;23;20016;-80
2023/09/28 05:01:54;;;;;;;22.83;13.52;;;;;;;;;;6242014;23;20011;-80
2023/09/28 05:04:20;;;;;;;14.35;9.38;;;;;;;;;;6215636;23;20099;-82
2023/09/28 05:06:46;;;;;;;15.43;10.15;;;;;;;;;;6198074;23;20039;-83
2023/09/28 05:09:13;;;;;;;12.68;9.07;;;;;;;;;;6221192;23;20012;-82
2023/09/28 05:11:39;;;;;;;10.77;9.25;;;;;;;;;;6243919;23;20008;-82
2023/09/28 05:14:05;;;;;;;14.57;9.05;;;;;;;;;;6193322;23;20027;-83
2023/09/28 05:16:32;;;;;;;16.83;9.48;;;;;;;;;;6245298;22;20016;-81
2023/09/28 05:18:57;;;;;;;11.43;8.10;;;;;;;;;;6243389;23;20069;-81
2023/09/28 05:21:24;;;;;;;11.25;9.05;;;;;;;;;;6216389;23;20016;-81
2023/09/28 05:23:50;;;;;;;10.70;8.95;;;;;;;;;;6214043;23;20023;-81
2023/09/28 05:26:16;;;;;;;11.70;9.20;;;;;;;;;;6239745;23;20024;-80
2023/09/28 05:28:42;;;;;;;9.18;8.27;;;;;;;;;;6214825;23;20008;-81
2023/09/28 05:31:08;;;;;;;11.18;8.88;;;;;;;;;;6189868;23;20016;-82
2023/09/28 05:33:35;;;;;;;14.57;8.40;;;;;;;;;;6215929;23;20502;-79
2023/09/28 05:36:01;;;;;;;16.23;8.85;;;;;;;;;;6165239;23;20349;-81
2023/09/28 05:38:27;;;;;;;20.52;8.45;;;;;;;;;;6190345;23;20111;-82
2023/09/28 05:40:54;;;;;;;9.68;7.82;;;;;;;;;;6242626;23;20039;-81
2023/09/28 05:43:21;;;;;;;13.60;9.18;;;;;;;;;;6191664;23;20783;-81
2023/09/28 05:45:48;;;;;;;10.77;8.07;;;;;;;;;;6140877;23;20032;-80
2023/09/28 05:48:14;;;;;;;16.70;9.55;;;;;;;;;;6215480;23;20016;-80
2023/09/28 05:50:40;;;;;;;13.25;8.80;;;;;;;;;;6215608;23;20207;-80
2023/09/28 05:53:06;;;;;;;12.20;7.80;;;;;;;;;;6215184;23;20449;-81
2023/09/28 05:55:32;;;;;;;12.73;9.05;;;;;;;;;;6215845;23;20019;-80
2023/09/28 05:57:58;;;;;;;16.60;10.15;;;;;;;;;;6215256;23;20157;-79
2023/09/28 06:00:24;;;;;;;14.98;9.98;;;;;;;;;;6196420;23;20314;-79
2023/09/28 06:02:50;;;;;;;14.93;8.95;;;;;;;;;;6223134;23;20012;-82
2023/09/28 06:05:17;;;;;;;14.88;8.70;;;;;;;;;;6198180;23;20132;-82
2023/09/28 06:07:43;;;;;;;18.05;9.63;;;;;;;;;;6222583;23;20008;-82
2023/09/28 06:10:10;;;;;;;16.30;9.57;;;;;;;;;;6217422;23;20012;-78
2023/09/28 06:12:36;;;;;;;13.40;8.75;;;;;;;;;;6166319;23;20027;-81
2023/09/28 06:15:04;;;;;;;17.67;9.35;;;;;;;;;;6166907;23;20042;-82
2023/09/28 06:17:31;;;;;;;11.68;8.85;;;;;;;;;;6217081;23;20020;-79
2023/09/28 06:19:58;;;;;;;16.70;9.68;;;;;;;;;;6216471;23;20020;-81
2023/09/28 06:22:25;;;;;;;11.85;8.05;;;;;;;;;;6247558;23;20008;-82
2023/09/28 06:24:51;;;;;;;17.77;8.43;;;;;;;;;;6171277;23;20031;-82
2023/09/28 06:27:17;;;;;;;13.70;10.35;;;;;;;;;;6222687;23;20046;-79
2023/09/28 06:29:43;;;;;;;11.82;8.68;;;;;;;;;;6251752;23;20444;-80
2023/09/28 06:32:09;;;;;;;18.05;8.45;;;;;;;;;;6250892;23;20092;-81
2023/09/28 06:34:36;;;;;;;12.27;8.18;;;;;;;;;;6201627;23;20012;-81
2023/09/28 06:37:02;;;;;;;13.52;8.52;;;;;;;;;;6197620;23;20008;-80
2023/09/28 06:39:28;;;;;;;10.57;9.25;;;;;;;;;;6193278;23;20026;-80
2023/09/28 06:41:55;;;;;;;14.63;8.40;;;;;;;;;;6165564;23;20015;-79
2023/09/28 06:44:26;;;;;;;9.80;8.38;;;;;;;;;;6216557;23;20027;-81
2023/09/28 06:46:53;;;;;;;12.82;8.32;;;;;;;;;;6192030;23;20247;-81
2023/09/28 06:49:20;;;;;;;10.00;8.95;;;;;;;;;;6243695;23;20012;-81
2023/09/28 06:51:48;;;;;;;18.88;9.05;;;;;;;;;;6242609;23;20209;-80
2023/09/28 06:54:14;;;;;;;15.32;8.38;;;;;;;;;;6215373;23;20038;-81
2023/09/28 06:56:41;;;;;;;13.98;8.90;;;;;;;;;;6216124;23;20012;-82
2023/09/28 06:59:07;;;;;;;19.08;8.15;;;;;;;;;;6215777;23;20050;-82
2023/09/28 07:01:35;;;;;;;14.75;8.60;;;;;;;;;;6217728;23;20012;-81
2023/09/28 07:04:01;;;;;;;16.20;8.98;;;;;;;;;;6166003;23;20050;-80
2023/09/28 07:06:27;;;;;;;11.77;7.55;;;;;;;;;;6191241;23;20024;-82
2023/09/28 07:08:57;;;;;;;13.73;7.40;;;;;;;;;;6242452;23;20012;-80
2023/09/28 07:11:24;;;;;;;16.88;7.68;;;;;;;;;;6216569;23;20020;-81
2023/09/28 07:13:50;;;;;;;17.92;7.70;;;;;;;;;;6171043;23;20055;-82
2023/09/28 07:16:16;;;;;;;12.48;8.25;;;;;;;;;;6200557;23;20468;-82
2023/09/28 07:18:42;;;;;;;10.23;7.47;;;;;;;;;;6199150;23;20008;-81
2023/09/28 07:21:08;;;;;;;16.33;7.30;;;;;;;;;;6216797;23;20051;-81
2023/09/28 07:23:36;;;;;;;11.85;6.65;;;;;;;;;;6216310;23;20008;-81
2023/09/28 07:26:03;;;;;;;7.18;6.15;;;;;;;;;;6215588;23;20055;-81
2023/09/28 07:28:29;;;;;;;14.23;6.78;;;;;;;;;;6191256;23;20012;-81
2023/09/28 07:30:55;;;;;;;11.75;6.07;;;;;;;;;;6166218;23;20024;-79
2023/09/28 07:33:21;;;;;;;11.88;6.38;;;;;;;;;;6217155;23;20008;-81
2023/09/28 07:35:48;;;;;;;10.70;5.82;;;;;;;;;;6217151;23;20020;-81
2023/09/28 07:38:14;;;;;;;11.93;5.95;;;;;;;;;;6217174;23;20019;-82
2023/09/28 07:40:41;;;;;;;6.18;5.57;;;;;;;;;;6192331;23;20055;-81
2023/09/28 07:43:07;;;;;;;14.63;5.90;;;;;;;;;;6217294;23;20468;-81
2023/09/28 07:45:33;;;;;;;12.18;5.43;;;;;;;;;;6193430;23;20035;-82
2023/09/28 07:48:00;;;;;;;7.03;4.60;;;;;;;;;;6218647;23;20012;-81
2023/09/28 07:50:26;;;;;;;12.95;6.25;;;;;;;;;;6247680;23;20018;-79
2023/09/28 07:52:52;;;;;;;10.65;5.88;;;;;;;;;;6203597;23;20012;-81
2023/09/28 07:55:18;;;;;;;9.60;5.18;;;;;;;;;;6206599;23;20460;-81
2023/09/28 07:57:46;;;;;;;10.38;5.82;;;;;;;;;;6229482;23;20071;-81
2023/09/28 08:00:13;;;;;;;9.75;5.20;;;;;;;;;;6227124;23;20086;-80
2023/09/28 08:02:40;;;;;;;9.20;5.10;;;;;;;;;;6247732;23;20506;-82
2023/09/28 08:05:07;;;;;;;6.88;4.75;;;;;;;;;;6220238;23;20483;-82
2023/09/28 08:07:33;;;;;;;9.70;4.70;;;;;;;;;;6219688;23;20603;-82
2023/09/28 08:10:03;;;;;;;8.77;4.75;;;;;;;;;;6193016;23;20020;-82
2023/09/28 08:12:31;;;;;;;9.95;5.18;;;;;;;;;;6168923;23;20693;-81
2023/09/28 08:14:57;;;;;;;4.60;4.15;;;;;;;;;;6218750;23;20023;-82
2023/09/28 08:17:24;;;;;;;10.43;4.82;;;;;;;;;;6243919;22;20098;-82
2023/09/28 08:19:50;;;;;;;5.78;4.40;;;;;;;;;;6165967;23;20016;-83
2023/09/28 08:22:17;;;;;;;7.63;4.43;;;;;;;;;;6190531;23;20023;-81
2023/09/28 08:24:43;;;;;;;7.82;4.25;;;;;;;;;;6190868;23;20035;-82
2023/09/28 08:27:09;;;;;;;5.68;4.15;;;;;;;;;;6215127;23;20093;-82
2023/09/28 08:29:37;;;;;;;5.88;4.18;;;;;;;;;;6242425;23;20449;-82
2023/09/28 08:32:03;;;;;;;6.32;4.38;;;;;;;;;;6217660;23;20062;-81
2023/09/28 08:34:30;;;;;;;6.97;4.10;;;;;;;;;;6243472;23;20064;-80
2023/09/28 08:36:56;;;;;;;10.55;4.43;;;;;;;;;;6191148;23;20106;-81
2023/09/28 08:39:22;;;;;;;4.55;3.97;;;;;;;;;;6193257;23;20062;-81
2023/09/28 08:41:52;;;;;;;6.22;4.80;;;;;;;;;;6192481;23;20008;-81
2023/09/28 08:44:18;;;;;;;5.22;4.72;;;;;;;;;;6167019;23;20015;-80
2023/09/28 08:46:45;;;;;;;8.43;4.20;;;;;;;;;;6217153;23;20019;-79
2023/09/28 08:49:14;;;;;;;4.97;4.38;;;;;;;;;;6191680;23;20008;-80
2023/09/28 08:51:40;;;;;;;5.32;3.65;;;;;;;;;;6244018;23;20022;-82
2023/09/28 08:54:07;;;;;;;9.25;3.67;;;;;;;;;;6243732;23;20008;-83
2023/09/28 08:56:34;;;;;;;3.85;3.53;;;;;;;;;;6192347;23;20107;-81
2023/09/28 08:59:02;;;;;;;5.18;3.20;;;;;;;;;;6216966;23;20035;-83
2023/09/28 09:01:28;;;;;;;6.78;3.80;;;;;;;;;;6192574;23;20024;-82
2023/09/28 09:03:56;;;;;;;4.28;3.17;;;;;;;;;;6216842;23;20015;-81
2023/09/28 09:06:22;;;;;;;3.92;3.60;;;;;;;;;;6243528;23;20077;-81
2023/09/28 09:08:48;;;;;;;4.00;3.63;;;;;;;;;;6243556;23;20012;-82
2023/09/28 09:11:16;;;;;;;7.75;4.28;;;;;;;;;;6192249;23;20015;-81
2023/09/28 09:13:49;;;;;;;5.28;4.05;;;;;;;;;;6217287;23;20020;-83
2023/09/28 09:16:16;;;;;;;4.40;4.00;;;;;;;;;;6217827;23;20020;-79
2023/09/28 09:18:42;;;;;;;6.35;4.10;;;;;;;;;;6218487;23;20016;-81
2023/09/28 09:21:08;;;;;;;5.88;3.90;;;;;;;;;;6217853;23;20012;-81
2023/09/28 09:23:34;;;;;;;6.88;4.07;;;;;;;;;;6195059;23;20019;-81
2023/09/28 09:26:02;;;;;;;6.45;3.95;;;;;;;;;;6194682;23;20024;-81
2023/09/28 09:28:29;;;;;;;4.60;4.00;;;;;;;;;;6246590;23;20044;-82
2023/09/28 09:30:55;;;;;;;4.22;3.53;;;;;;;;;;6218407;23;20523;-81
2023/09/28 09:33:22;;;;;;;6.13;3.83;;;;;;;;;;6219582;23;20126;-81
2023/09/28 09:35:49;;;;;;;6.53;3.70;;;;;;;;;;6245872;23;20012;-79
2023/09/28 09:38:15;;;;;;;4.90;4.03;;;;;;;;;;6203292;23;20008;-84
2023/09/28 09:40:41;;;;;;;4.10;3.70;;;;;;;;;;6239943;23;20028;-86
2023/09/28 09:43:07;;;;;;;9.05;3.60;;;;;;;;;;6244026;23;20008;-86
2023/09/28 09:45:37;;;;;;;4.38;3.97;;;;;;;;;;6217253;23;20040;-86
2023/09/28 18:02:53;;;;;;;12.70;6.65;;;;;;;;;;6240484;22;20758;-78
2023/09/28 18:05:19;;;;;;;13.75;6.40;;;;;;;;;;6214939;23;20050;-77
2023/09/28 18:07:45;;;;;;;10.07;6.65;;;;;;;;;;6214951;23;20012;-78
2023/09/28 18:10:11;;;;;;;15.50;7.10;;;;;;;;;;6214950;23;20094;-76
2023/09/28 18:12:37;;;;;;;9.32;6.95;;;;;;;;;;6241248;23;20530;-78
2023/09/28 18:15:04;;;;;;;17.35;7.20;;;;;;;;;;6189879;23;20042;-76
2023/09/28 18:17:31;;;;;;;14.48;7.35;;;;;;;;;;6214672;23;20057;-74
2023/09/28 18:19:57;;;;;;;13.85;6.88;;;;;;;;;;6214491;23;20098;-74
2023/09/28 18:22:23;;;;;;;12.93;6.45;;;;;;;;;;6189206;23;20062;-76
2023/09/28 18:24:50;;;;;;;10.40;6.50;;;;;;;;;;6240088;23;20106;-76
2023/09/28 18:27:16;;;;;;;10.07;5.72;;;;;;;;;;6241463;23;20035;-77
2023/09/28 18:29:42;;;;;;;12.40;6.10;;;;;;;;;;6189517;23;20016;-78
2023/09/28 18:32:07;;;;;;;8.32;6.38;;;;;;;;;;6189443;23;20016;-77
2023/09/28 18:34:35;;;;;;;13.10;6.53;;;;;;;;;;6240865;23;20047;-80
2023/09/28 18:37:01;;;;;;;10.23;6.60;;;;;;;;;;6243666;23;20035;-81
2023/09/28 18:39:27;;;;;;;15.77;7.25;;;;;;;;;;6214693;23;20452;-82
2023/09/28 18:41:53;;;;;;;9.90;6.25;;;;;;;;;;6215341;23;20020;-82
2023/09/28 18:44:20;;;;;;;17.00;7.00;;;;;;;;;;6214848;23;20012;-82
2023/09/28 18:46:46;;;;;;;9.35;7.15;;;;;;;;;;6215443;23;20039;-80
2023/09/28 18:49:12;;;;;;;14.07;7.88;;;;;;;;;;6242332;23;20360;-81
2023/09/28 18:51:38;;;;;;;12.38;6.53;;;;;;;;;;6165041;23;20978;-77
2023/09/28 18:54:05;;;;;;;10.75;6.50;;;;;;;;;;6242212;23;20035;-80
2023/09/28 18:56:31;;;;;;;14.23;7.05;;;;;;;;;;6240916;23;20070;-81
2023/09/28 18:58:57;;;;;;;20.17;6.28;;;;;;;;;;6214023;23;20016;-79
2023/09/28 19:01:23;;;;;;;12.73;6.70;;;;;;;;;;6164635;23;20075;-79
2023/09/28 19:03:49;;;;;;;11.57;7.10;;;;;;;;;;6214352;23;20539;-78
2023/09/28 19:06:15;;;;;;;12.93;6.55;;;;;;;;;;6189849;23;20027;-80
2023/09/28 19:08:41;;;;;;;15.25;6.65;;;;;;;;;;6240088;23;20008;-81
2023/09/28 19:11:07;;;;;;;16.85;6.45;;;;;;;;;;6215119;23;20551;-82
2023/09/28 19:13:33;;;;;;;25.55;6.55;;;;;;;;;;6214753;23;20012;-82
2023/09/28 19:16:03;;;;;;;8.10;6.18;;;;;;;;;;6215427;23;20012;-76
2023/09/28 19:18:29;;;;;;;12.10;6.32;;;;;;;;;;6189629;23;20018;-74
2023/09/28 19:20:55;;;;;;;13.13;6.40;;;;;;;;;;6241358;23;20079;-75
2023/09/28 19:23:23;;;;;;;11.68;6.05;;;;;;;;;;6214676;23;20054;-74
2023/09/28 19:25:49;;;;;;;7.88;6.40;;;;;;;;;;6214951;23;20604;-74
2023/09/28 19:28:18;;;;;;;17.08;6.78;;;;;;;;;;6242685;23;20015;-74
2023/09/28 19:30:47;;;;;;;9.80;6.85;;;;;;;;;;6250967;23;20464;-73
2023/09/28 19:33:13;;;;;;;14.68;5.97;;;;;;;;;;6224160;23;20093;-73
2023/09/28 19:35:39;;;;;;;10.02;6.60;;;;;;;;;;6215679;23;20012;-73
2023/09/28 19:38:07;;;;;;;21.50;6.05;;;;;;;;;;6241618;23;20044;-74
2023/09/28 19:40:34;;;;;;;11.40;6.57;;;;;;;;;;6240270;23;20012;-74
2023/09/28 19:43:00;;;;;;;10.02;6.55;;;;;;;;;;6214426;23;20012;-73
2023/09/28 19:45:26;;;;;;;9.63;6.20;;;;;;;;;;6214182;23;20155;-74
2023/09/28 19:47:52;;;;;;;10.45;6.43;;;;;;;;;;6214156;23;20011;-74
2023/09/28 19:50:21;;;;;;;9.55;6.38;;;;;;;;;;6241177;23;20083;-74
2023/09/28 19:52:47;;;;;;;19.58;7.30;;;;;;;;;;6215762;23;20441;-74
2023/09/28 19:55:13;;;;;;;6.88;5.85;;;;;;;;;;6242657;23;20034;-74
2023/09/28 19:57:39;;;;;;;8.45;5.80;;;;;;;;;;6215719;23;20558;-74
2023/09/28 20:00:05;;;;;;;7.70;5.80;;;;;;;;;;6242950;23;20039;-74
2023/09/28 20:02:31;;;;;;;6.53;5.93;;;;;;;;;;6243228;23;20023;-74
2023/09/28 20:04:57;;;;;;;12.90;6.47;;;;;;;;;;6212876;23;20020;-74
2023/09/28 20:07:23;;;;;;;9.52;6.05;;;;;;;;;;6242251;23;20012;-74
2023/09/28 20:09:49;;;;;;;17.52;7.07;;;;;;;;;;6242536;23;20019;-74
2023/09/28 20:12:16;;;;;;;8.65;5.72;;;;;;;;;;6242852;23;20548;-74
2023/09/28 20:14:42;;;;;;;9.50;6.03;;;;;;;;;;6190195;23;20012;-76
2023/09/28 20:17:08;;;;;;;8.32;6.25;;;;;;;;;;6242383;23;20092;-75
2023/09/28 20:19:34;;;;;;;6.75;5.95;;;;;;;;;;6241950;23;20035;-75
2023/09/28 20:22:01;;;;;;;8.18;6.60;;;;;;;;;;6190366;23;20012;-74
2023/09/28 20:24:28;;;;;;;11.43;6.28;;;;;;;;;;6190153;23;20016;-74
2023/09/28 20:26:54;;;;;;;8.88;5.97;;;;;;;;;;6215418;23;20081;-75
2023/09/28 20:29:20;;;;;;;9.35;6.53;;;;;;;;;;6215647;23;20456;-74
2023/09/28 20:31:46;;;;;;;11.30;6.72;;;;;;;;;;6241864;23;20020;-76
2023/09/28 20:34:12;;;;;;;16.23;6.30;;;;;;;;;;6190215;23;20742;-74
2023/09/28 20:36:39;;;;;;;10.98;6.55;;;;;;;;;;6214919;23;20018;-75
2023/09/28 20:39:05;;;;;;;13.55;6.80;;;;;;;;;;6190714;23;20019;-74
2023/09/28 20:41:32;;;;;;;13.25;7.32;;;;;;;;;;6164170;23;20075;-75
2023/09/28 20:43:58;;;;;;;9.38;6.78;;;;;;;;;;6215381;23;20031;-75
2023/09/28 20:46:24;;;;;;;7.20;6.50;;;;;;;;;;6165035;23;20024;-75
2023/09/28 20:48:50;;;;;;;8.23;7.10;;;;;;;;;;6189864;23;20099;-74
2023/09/28 20:51:16;;;;;;;12.45;7.22;;;;;;;;;;6215485;23;20100;-74
2023/09/28 20:53:42;;;;;;;11.32;6.50;;;;;;;;;;6214815;23;20433;-75
2023/09/28 20:56:14;;;;;;;11.02;7.85;;;;;;;;;;6241827;23;20008;-74
2023/09/28 20:58:40;;;;;;;10.75;6.65;;;;;;;;;;6215008;23;20491;-75
2023/09/28 21:01:07;;;;;;;12.77;7.03;;;;;;;;;;6240631;23;20008;-74
2023/09/28 21:03:33;;;;;;;8.82;6.72;;;;;;;;;;6241552;23;20023;-75
2023/09/28 21:05:59;;;;;;;7.45;6.53;;;;;;;;;;6242468;23;20082;-75
2023/09/28 21:08:25;;;;;;;13.13;6.88;;;;;;;;;;6241965;23;20649;-76
2023/09/28 21:10:51;;;;;;;10.65;6.78;;;;;;;;;;6242001;23;20103;-73
2023/09/28 21:13:17;;;;;;;13.85;7.13;;;;;;;;;;6215842;23;20043;-75
2023/09/28 21:15:43;;;;;;;14.65;7.68;;;;;;;;;;6215354;23;20016;-75
2023/09/28 21:18:09;;;;;;;11.40;6.40;;;;;;;;;;6215901;23;20008;-73
2023/09/28 21:20:36;;;;;;;9.70;7.15;;;;;;;;;;6214578;23;20548;-76
2023/09/28 21:23:02;;;;;;;13.57;6.57;;;;;;;;;;6241930;23;20042;-74
2023/09/28 21:25:28;;;;;;;9.52;6.63;;;;;;;;;;6241412;23;20024;-74
2023/09/28 21:27:54;;;;;;;14.38;7.50;;;;;;;;;;6215096;23;20012;-75
2023/09/28 21:30:20;;;;;;;14.60;6.82;;;;;;;;;;6241686;23;20087;-74
2023/09/28 21:32:46;;;;;;;11.25;7.22;;;;;;;;;;6214526;23;20082;-74
2023/09/28 21:35:12;;;;;;;11.23;6.82;;;;;;;;;;6241581;23;20016;-75
2023/09/28 21:37:38;;;;;;;13.88;6.65;;;;;;;;;;6241210;23;20377;-80
2023/09/28 21:40:04;;;;;;;15.90;7.18;;;;;;;;;;6241829;23;20019;-81
2023/09/28 21:42:30;;;;;;;13.13;6.97;;;;;;;;;;6166772;23;20012;-80
2023/09/28 21:45:03;;;;;;;10.75;6.75;;;;;;;;;;6242976;23;20031;-78
2023/09/28 21:47:30;;;;;;;12.00;7.93;;;;;;;;;;6216228;23;20095;-80
2023/09/28 21:49:56;;;;;;;16.92;7.15;;;;;;;;;;6192033;23;20040;-80
2023/09/28 21:52:23;;;;;;;11.70;8.35;;;;;;;;;;6216497;23;20476;-79
2023/09/28 21:54:49;;;;;;;15.63;8.13;;;;;;;;;;6189609;23;20077;-79
2023/09/28 21:57:15;;;;;;;10.70;7.25;;;;;;;;;;6242948;23;20016;-79
2023/09/28 21:59:41;;;;;;;9.43;7.25;;;;;;;;;;6215773;23;20024;-77
2023/09/28 22:02:11;;;;;;;13.45;7.35;;;;;;;;;;6215462;23;20464;-78
2023/09/28 22:04:37;;;;;;;9.02;7.93;;;;;;;;;;6138329;23;20032;-79
2023/09/28 22:07:03;;;;;;;13.68;7.70;;;;;;;;;;6212645;23;20038;-80
2023/09/28 22:09:28;;;;;;;10.65;7.68;;;;;;;;;;6186044;23;20051;-80
2023/09/28 22:11:55;;;;;;;13.90;8.65;;;;;;;;;;6212150;23;20014;-81
2023/09/28 22:14:21;;;;;;;21.90;8.52;;;;;;;;;;6161225;23;20481;-79
2023/09/28 22:16:47;;;;;;;12.00;8.38;;;;;;;;;;6186407;23;20012;-80
2023/09/28 22:19:14;;;;;;;16.65;7.63;;;;;;;;;;6163482;23;20482;-80
2023/09/28 22:21:41;;;;;;;23.55;8.48;;;;;;;;;;6161286;23;20454;-80
2023/09/28 22:24:08;;;;;;;19.20;8.55;;;;;;;;;;6187946;23;20036;-80
2023/09/28 22:26:34;;;;;;;20.10;8.82;;;;;;;;;;6187027;23;20024;-80
2023/09/28 22:29:01;;;;;;;25.63;9.32;;;;;;;;;;6187872;23;20009;-79
2023/09/28 22:31:27;;;;;;;18.15;8.15;;;;;;;;;;6186297;23;20021;-80
2023/09/28 22:33:54;;;;;;;15.93;9.43;;;;;;;;;;6162323;23;20448;-80
2023/09/28 22:36:20;;;;;;;13.98;8.18;;;;;;;;;;6187899;23;20354;-78
2023/09/28 22:38:46;;;;;;;15.77;8.90;;;;;;;;;;6163284;23;20047;-78
2023/09/28 22:41:15;;;;;;;21.00;8.77;;;;;;;;;;6164088;23;20009;-79